This is the latest recevied weather packets stored in our database for station/object KG4QXL-1. If no packets are shown the sender has not sent any weather packets the latest 10 day(s).
| Time | Temp. | Humidity | Pressure | Rain* | Wind** | Luminosity | Snow |
|---|---|---|---|---|---|---|---|
| 1778099155 | 22.78° C | 70% | 1014.3 hPa | 0 mm | - | 124 W/m² | - |
| 1778092575 | 21.67° C | 69% | 1014.5 hPa | 0 mm | - | 138 W/m² | - |
| 1778091956 | 21.67° C | 69% | 1014.6 hPa | 0 mm | - | 242 W/m² | - |
| 1778090755 | 21.11° C | 73% | 1015 hPa | 0 mm | - | 163 W/m² | - |
| 1778084755 | 20.56° C | 73% | 1015.3 hPa | 0 mm | - | 233 W/m² | - |
| 1778073355 | 15.56° C | 96% | 1016.6 hPa | 0 mm | - | 97 W/m² | - |
| 1778070355 | 14.44° C | 97% | 1017.1 hPa | 0.51 mm | - | 32 W/m² | - |
| 1778069755 | 14.44° C | 96% | 1017.1 hPa | 0.76 mm | - | 19 W/m² | - |
| 1778064375 | 18.33° C | 67% | 1016.4 hPa | 0 mm | - | 4 W/m² | - |
| 1778057155 | 19.44° C | 53% | 1015.9 hPa | 0 mm | - | 0 W/m² | - |
| 1778055955 | 18.89° C | 52% | 1016 hPa | 0 mm | - | 0 W/m² | - |
| 1778047555 | 20° C | 47% | 1017.1 hPa | 0 mm | - | 0 W/m² | - |
| 1778046976 | 20° C | 47% | 1017.3 hPa | 0 mm | - | 0 W/m² | - |
| 1778042155 | 21.11° C | 44% | 1017.4 hPa | 0 mm | - | 0 W/m² | - |
| 1778040356 | 21.11° C | 43% | 1017.4 hPa | 0 mm | - | 0 W/m² | - |
| 1778029555 | 21.67° C | 37% | 1017.1 hPa | 0 mm | - | 0 W/m² | - |
| 1778020555 | 26.11° C | 31% | 1015.3 hPa | 0 mm | - | 73 W/m² | - |
| 1778014555 | 27.22° C | 27% | 1014.8 hPa | 0 mm | - | 187 W/m² | - |
| 1778006178 | 27.22° C | 29% | 1015.6 hPa | 0 mm | - | 677 W/m² | - |
| 1778005556 | 27.78° C | 30% | 1015.8 hPa | 0 mm | - | 679 W/m² | - |
| 1778000156 | 27.22° C | 32% | 1016.8 hPa | 0 mm | - | 645 W/m² | - |
| 1777999556 | 27.22° C | 33% | 1016.8 hPa | 0 mm | - | 726 W/m² | - |
| 1777995996 | 25° C | 37% | 1016.5 hPa | 0 mm | - | 577 W/m² | - |
| 1777989356 | 23.33° C | 42% | 1017.9 hPa | 0 mm | - | 164 W/m² | - |
| 1777986956 | 21.67° C | 47% | 1018.3 hPa | 0 mm | - | 187 W/m² | - |
* Rain latest hour (hover to see other rain measurements)
** Current wind speed in m/s (hover to see current wind gust speed)